Garibaldi, OR (97118)

17:15 PDT le 30 Mars 2015 (GMT -0700)
bay view-pacific coast | | Change Station
CLOSE
Current Station
Stations météorologiques personnelles
Location: Garibaldi, OR
Altitude: 50 ft
Stations météo à proximité

Alt. 50 ft 45.56 °N, 123.91 °W | Updated 5 minutes ago

Partiellement nuageux
Partiellement nuageux
55.3 ° F
Paraît 55.3 ° F
N
10.0
Vent Variable Vent de SSO
Gusts 10.0 mph

Aujourd'hui
Haut(e) -- | Bas -- ° F
--% Risque de précip.
Hier
Haut(e) -- | Bas -- ° F
Precip. -- pouce
6:59 AM 7:41 PM
Lune gibbeuse croissante, 83% visible
Pression 29.99 pouce
Visibilité 10.0 Miles terrestres
Nuages Ciel dégagé
Point de rosée 50 ° F
Humidité 81%
Précipitations 0.00 pouce
Profondeur de la couche neigeuse Non disponible.
UV 3 sur 12
Pollen 11.10 sur 12
Qualité de l'air Non disponible.
Flu Activity Non disponible.
METAR KTMK 302355Z AUTO 22011G16KT 10SM CLR 15/10 A2999 RMK AO2

More Conditions Fewer Conditions

Pression 29.99 pouce
Visibilité 10.0 Miles terrestres
Nuages Ciel dégagé
Point de rosée 50 ° F
Humidité 81%
Précipitations 0.00 pouce
Profondeur de la couche neigeuse Non disponible.
UV 3 sur 12
Pollen 11.10 sur 12
Qualité de l'air Non disponible.
Flu Activity Non disponible.
METAR KTMK 302355Z AUTO 22011G16KT 10SM CLR 15/10 A2999 RMK AO2

More Conditions Fewer Conditions

10-Day Weather Forecast

Almanac

Astronomie

Mar. 30, 2015 Lever Coucher
Temps réel
Crépuscule civil
Crépuscule nautique
Crépuscule astronomique
Lune
Durée de lumière visible
Longueur du jour
Tomorrow will be .
, % of the Moon is Illuminated

Extrêmes aujourd'hui

State Highs State Lows

Community

WunderPhotos

Upload Photos

1,809,622 Photos téléchargées !

WunderBlogs® & News

Nearby

Qualité de l'air

  Qualité de l'air Indice de la qualité de l'air Polluant
Not available.

Épaisseur de neige

Station Depth Altitude

Activité sismique

Ville Distance Mag. Time & Date
Minimum magnitude displayed is 2.5.

Températures des eaux côtières

Lieu Température

Stations

Stations météo à proximité

Emplacement de la station Température Refroidissement éolien Point de rosée Humidité Vent Precip. Alt. Mise à jour Type